createdAt,value
2022-12-13T00:00:38.674Z,16.73
2022-12-13T00:03:07.562Z,17.00
2022-12-13T00:05:34.492Z,17.87
2022-12-13T00:08:02.167Z,17.53
2022-12-13T00:10:29.306Z,18.83
2022-12-13T00:12:56.337Z,18.30
2022-12-13T00:15:23.020Z,17.87
2022-12-13T00:17:50.412Z,19.47
2022-12-13T00:20:17.224Z,19.00
2022-12-13T00:22:45.597Z,17.97
2022-12-13T00:25:13.207Z,18.77
2022-12-13T00:27:40.685Z,19.30
2022-12-13T00:30:07.814Z,19.87
2022-12-13T00:32:34.900Z,19.30
2022-12-13T00:35:01.589Z,18.67
2022-12-13T00:37:28.243Z,19.60
2022-12-13T00:39:55.309Z,19.20
2022-12-13T00:42:21.948Z,19.63
2022-12-13T00:44:48.668Z,18.70
2022-12-13T00:47:15.739Z,19.30
2022-12-13T00:49:42.396Z,19.37
2022-12-13T00:52:09.462Z,18.97
2022-12-13T00:54:36.637Z,20.03
2022-12-13T00:57:03.437Z,19.03
2022-12-13T00:59:30.201Z,19.00
2022-12-13T01:01:57.530Z,18.07
2022-12-13T01:04:24.606Z,20.03
2022-12-13T01:06:51.471Z,19.93
2022-12-13T01:09:22.083Z,19.20
2022-12-13T01:11:49.773Z,19.43
2022-12-13T01:14:17.546Z,19.70
2022-12-13T01:16:44.806Z,19.27
2022-12-13T01:19:12.020Z,20.50
2022-12-13T01:21:39.137Z,20.50
2022-12-13T01:24:06.892Z,19.53
2022-12-13T01:26:34.154Z,18.90
2022-12-13T01:29:01.268Z,19.60
2022-12-13T01:31:28.385Z,20.63
2022-12-13T01:33:55.438Z,19.77
2022-12-13T01:36:26.976Z,20.53
2022-12-13T01:38:58.059Z,20.03
2022-12-13T01:41:27.262Z,20.60
2022-12-13T01:44:03.603Z,20.07
2022-12-13T01:46:33.348Z,20.23
2022-12-13T01:49:05.524Z,19.57
2022-12-13T01:51:55.948Z,19.67
2022-12-13T01:54:33.237Z,19.57
2022-12-13T01:57:03.324Z,18.83
2022-12-13T01:59:30.692Z,20.03
2022-12-13T02:02:00.768Z,19.70
2022-12-13T02:04:34.388Z,19.27
2022-12-13T02:07:01.412Z,19.27
2022-12-13T02:09:28.528Z,19.77
2022-12-13T02:11:55.847Z,19.27
2022-12-13T02:14:22.952Z,19.50
2022-12-13T02:17:03.451Z,19.00
2022-12-13T02:19:54.944Z,18.90
2022-12-13T02:22:24.617Z,19.83
2022-12-13T02:24:52.041Z,19.07
2022-12-13T02:27:42.879Z,18.83
2022-12-13T02:30:15.574Z,19.40
2022-12-13T02:33:06.573Z,20.00
2022-12-13T02:35:53.006Z,19.40
2022-12-13T02:38:38.463Z,19.23
2022-12-13T02:41:42.975Z,17.93
2022-12-13T02:44:22.295Z,18.40
2022-12-13T02:47:00.054Z,18.97
2022-12-13T02:49:31.002Z,19.27
2022-12-13T02:51:59.265Z,18.43
2022-12-13T02:54:26.354Z,19.43
2022-12-13T02:56:57.272Z,18.87
2022-12-13T02:59:31.398Z,18.60
2022-12-13T03:02:21.556Z,19.00
2022-12-13T03:05:25.405Z,18.63
2022-12-13T03:08:01.848Z,19.20
2022-12-13T03:11:03.358Z,19.63
2022-12-13T03:13:58.855Z,19.20
2022-12-13T03:16:40.355Z,19.53
2022-12-13T03:19:10.122Z,19.13
2022-12-13T03:21:48.876Z,18.20
2022-12-13T03:24:21.114Z,18.97
2022-12-13T03:26:49.535Z,18.10
2022-12-13T03:29:23.789Z,19.03
2022-12-13T03:31:55.459Z,18.80
2022-12-13T03:34:23.873Z,18.53
2022-12-13T03:36:52.398Z,18.37
2022-12-13T03:39:19.874Z,20.10
2022-12-13T03:41:47.193Z,19.30
2022-12-13T03:44:14.541Z,20.23
2022-12-13T03:46:41.667Z,17.70
2022-12-13T03:49:11.355Z,19.80
2022-12-13T03:51:42.167Z,18.83
2022-12-13T03:54:09.288Z,18.83
2022-12-13T03:56:35.944Z,18.43
2022-12-13T03:59:03.078Z,18.50
2022-12-13T04:01:29.847Z,18.53
2022-12-13T04:03:56.620Z,19.60
2022-12-13T04:06:27.417Z,19.10
2022-12-13T04:08:56.651Z,18.07
2022-12-13T04:11:43.425Z,18.70
2022-12-13T04:14:11.932Z,19.50
2022-12-13T04:16:39.294Z,19.37
2022-12-13T04:19:06.041Z,19.53
2022-12-13T04:21:37.973Z,19.50
2022-12-13T04:24:05.001Z,20.03
2022-12-13T04:26:32.047Z,19.47
2022-12-13T04:28:59.131Z,19.90
2022-12-13T04:31:25.860Z,20.93
2022-12-13T04:33:52.559Z,19.37
2022-12-13T04:36:31.121Z,20.07
2022-12-13T04:39:00.583Z,20.77
2022-12-13T04:41:33.978Z,19.63
2022-12-13T04:44:02.107Z,19.10
2022-12-13T04:46:29.221Z,20.50
2022-12-13T04:48:56.318Z,19.70
2022-12-13T04:51:23.618Z,19.00
2022-12-13T04:53:50.626Z,20.63
2022-12-13T04:56:17.697Z,20.50
2022-12-13T04:58:45.157Z,20.43
2022-12-13T05:01:12.743Z,21.60
2022-12-13T05:03:39.541Z,18.97
2022-12-13T05:06:27.041Z,20.73
2022-12-13T05:08:54.737Z,21.97
2022-12-13T05:11:27.904Z,23.77
2022-12-13T05:14:02.376Z,27.60
2022-12-13T05:16:29.516Z,23.97
2022-12-13T05:18:56.594Z,21.03
2022-12-13T05:21:23.303Z,21.20
2022-12-13T05:23:50.419Z,21.20
2022-12-13T05:26:17.051Z,22.20
2022-12-13T05:28:43.718Z,21.33
2022-12-13T05:31:23.539Z,21.73
2022-12-13T05:33:51.503Z,20.53
2022-12-13T05:36:18.654Z,19.47
2022-12-13T05:38:45.535Z,20.10
2022-12-13T05:41:16.836Z,20.63
2022-12-13T05:43:43.932Z,21.07
2022-12-13T05:46:12.663Z,20.77
2022-12-13T05:48:39.962Z,21.37
2022-12-13T05:51:10.796Z,21.07
2022-12-13T05:53:41.987Z,19.50
2022-12-13T05:56:10.887Z,20.70
2022-12-13T05:58:39.388Z,20.43
2022-12-13T06:01:08.936Z,20.10
2022-12-13T06:03:36.408Z,19.77
2022-12-13T06:06:04.951Z,19.60
2022-12-13T06:08:32.358Z,19.80
2022-12-13T06:11:11.304Z,20.23
2022-12-13T06:13:43.739Z,19.40
2022-12-13T06:16:21.973Z,19.87
2022-12-13T06:18:55.828Z,20.17
2022-12-13T06:21:27.967Z,18.93
2022-12-13T06:23:55.534Z,20.77
2022-12-13T06:26:22.179Z,19.87
2022-12-13T06:28:49.290Z,20.83
2022-12-13T06:31:16.024Z,20.07
2022-12-13T06:33:43.195Z,19.60
2022-12-13T06:36:10.794Z,20.50
2022-12-13T06:38:43.597Z,19.67
2022-12-13T06:41:15.377Z,20.40
2022-12-13T06:43:43.815Z,20.93
2022-12-13T06:46:10.531Z,21.23
2022-12-13T06:48:37.664Z,18.87
2022-12-13T06:51:05.165Z,21.57
2022-12-13T06:53:32.221Z,20.90
2022-12-13T06:56:13.186Z,21.97
2022-12-13T06:58:41.176Z,23.90
2022-12-13T07:01:24.878Z,20.97
2022-12-13T07:03:54.518Z,21.73
2022-12-13T07:06:23.305Z,18.70
2022-12-13T07:08:53.003Z,26.10
2022-12-13T07:11:25.476Z,19.30
2022-12-13T07:13:53.163Z,21.80
2022-12-13T07:16:20.824Z,30.20
2022-12-13T07:18:47.587Z,26.50
2022-12-13T07:21:21.349Z,19.07
2022-12-13T07:23:54.819Z,19.20
2022-12-13T07:26:22.536Z,20.40
2022-12-13T07:28:54.709Z,20.50
2022-12-13T07:31:24.183Z,22.50
2022-12-13T07:33:51.588Z,22.20
2022-12-13T07:36:20.564Z,23.60
2022-12-13T07:38:55.115Z,18.60
2022-12-13T07:41:26.058Z,20.97
2022-12-13T07:43:55.045Z,18.90
2022-12-13T07:46:33.393Z,18.10
2022-12-13T07:49:02.956Z,19.40
2022-12-13T07:51:30.129Z,22.17
2022-12-13T07:53:57.635Z,18.77
2022-12-13T07:56:24.745Z,17.57
2022-12-13T07:58:51.452Z,17.27
2022-12-13T08:01:18.717Z,17.20
2022-12-13T08:03:48.025Z,17.67
2022-12-13T08:06:15.169Z,18.27
2022-12-13T08:08:41.969Z,17.03
2022-12-13T08:11:15.373Z,18.40
2022-12-13T08:13:42.187Z,16.03
2022-12-13T08:16:26.084Z,17.87
2022-12-13T08:19:02.756Z,17.13
2022-12-13T08:21:58.527Z,16.77
2022-12-13T08:24:29.730Z,17.87
2022-12-13T08:27:02.547Z,17.50
2022-12-13T08:29:33.355Z,18.70
2022-12-13T08:32:06.704Z,17.67
2022-12-13T08:34:33.409Z,17.60
2022-12-13T08:37:02.728Z,16.23
2022-12-13T08:39:36.281Z,17.63
2022-12-13T08:42:15.825Z,18.20
2022-12-13T08:44:44.669Z,17.67
2022-12-13T08:47:11.734Z,17.53
2022-12-13T08:49:38.871Z,17.90
2022-12-13T08:52:05.525Z,17.27
2022-12-13T08:54:33.955Z,16.53
2022-12-13T08:57:01.032Z,17.40
2022-12-13T08:59:27.857Z,15.80
2022-12-13T09:01:57.728Z,16.63
2022-12-13T09:04:31.382Z,16.73
2022-12-13T09:07:01.797Z,17.10
2022-12-13T09:09:29.713Z,16.17
2022-12-13T09:11:59.421Z,16.23
2022-12-13T09:14:33.769Z,16.40
2022-12-13T09:17:03.153Z,15.77
2022-12-13T09:19:36.757Z,15.57
2022-12-13T09:22:05.113Z,16.67
2022-12-13T09:24:36.493Z,16.20
2022-12-13T09:27:09.422Z,15.40
2022-12-13T09:29:37.739Z,14.73
2022-12-13T09:32:05.027Z,16.03
2022-12-13T09:34:35.408Z,15.90
2022-12-13T09:37:02.499Z,16.67
2022-12-13T09:39:29.641Z,16.00
2022-12-13T09:42:00.943Z,16.27
2022-12-13T09:44:32.187Z,15.87
2022-12-13T09:47:13.877Z,16.33
2022-12-13T09:49:44.273Z,16.23
2022-12-13T09:52:21.343Z,15.47
2022-12-13T09:54:53.958Z,15.73
2022-12-13T09:57:31.508Z,15.90
2022-12-13T10:00:21.208Z,15.87
2022-12-13T10:02:55.126Z,16.13
2022-12-13T10:05:34.540Z,16.13
2022-12-13T10:08:13.986Z,16.57
2022-12-13T10:10:41.315Z,14.73
2022-12-13T10:13:39.979Z,14.57
2022-12-13T10:16:24.695Z,15.17
2022-12-13T10:18:52.015Z,15.30
2022-12-13T10:21:28.983Z,15.30
2022-12-13T10:24:27.782Z,15.17
2022-12-13T10:27:13.882Z,15.53
2022-12-13T10:30:06.319Z,15.37
2022-12-13T10:32:43.868Z,14.43
2022-12-13T10:35:37.343Z,14.97
2022-12-13T10:38:31.974Z,14.53
2022-12-13T10:41:01.178Z,14.43
2022-12-13T10:43:30.080Z,15.20
2022-12-13T10:46:00.045Z,15.40
2022-12-13T10:48:39.963Z,14.50
2022-12-13T10:51:12.669Z,14.43
2022-12-13T10:53:48.068Z,14.53
2022-12-13T10:56:22.926Z,13.10
2022-12-13T10:59:13.339Z,12.63
2022-12-13T11:01:43.989Z,13.33
2022-12-13T11:04:27.749Z,15.10
2022-12-13T11:06:56.065Z,13.53
2022-12-13T11:09:28.052Z,13.23
2022-12-13T11:11:59.116Z,12.83
2022-12-13T11:14:43.485Z,13.03
2022-12-13T11:17:21.342Z,13.47
2022-12-13T11:19:57.469Z,12.70
2022-12-13T11:22:27.126Z,13.47
2022-12-13T11:25:08.088Z,13.10
2022-12-13T11:28:01.113Z,13.20
2022-12-13T11:30:41.267Z,12.17
2022-12-13T11:33:29.507Z,12.30
2022-12-13T11:35:56.154Z,11.87
2022-12-13T11:38:28.693Z,12.17
2022-12-13T11:41:12.839Z,11.70
2022-12-13T11:44:08.072Z,10.40
2022-12-13T11:46:42.769Z,11.50
2022-12-13T11:49:19.218Z,11.73
2022-12-13T11:51:51.695Z,11.40
2022-12-13T11:54:28.172Z,12.27
2022-12-13T11:57:00.542Z,11.60
2022-12-13T11:59:46.320Z,11.60
2022-12-13T12:02:35.119Z,10.53
2022-12-13T12:05:33.213Z,10.97
2022-12-13T12:08:43.117Z,11.17
2022-12-13T12:11:31.205Z,9.63
2022-12-13T12:14:04.751Z,9.97
2022-12-13T12:16:58.339Z,10.40
2022-12-13T12:19:34.150Z,9.70
2022-12-13T12:22:18.844Z,10.43
2022-12-13T12:24:51.858Z,10.43
2022-12-13T12:27:39.631Z,11.27
2022-12-13T12:30:22.484Z,11.43
2022-12-13T12:33:06.941Z,10.27
2022-12-13T12:35:45.906Z,10.17
2022-12-13T12:38:18.932Z,10.63
2022-12-13T12:41:17.810Z,11.17
2022-12-13T12:43:47.579Z,10.23
2022-12-13T12:47:01.739Z,9.90
2022-12-13T12:49:31.015Z,10.50
2022-12-13T12:52:28.525Z,10.30
2022-12-13T12:55:02.989Z,10.23
2022-12-13T12:57:44.326Z,10.50
2022-12-13T13:00:18.563Z,9.87
2022-12-13T13:03:26.805Z,9.80
2022-12-13T13:06:09.868Z,9.23
2022-12-13T13:08:55.692Z,9.43
2022-12-13T13:11:26.032Z,10.23
2022-12-13T13:14:01.731Z,9.37
2022-12-13T13:16:40.190Z,9.63
2022-12-13T13:19:36.246Z,8.83
2022-12-13T13:22:04.925Z,9.67
2022-12-13T13:25:06.809Z,9.00
2022-12-13T13:27:40.343Z,9.53
2022-12-13T13:30:17.518Z,9.90
2022-12-13T13:32:44.294Z,9.53
2022-12-13T13:35:33.044Z,9.80
2022-12-13T13:38:04.157Z,9.47
2022-12-13T13:40:38.789Z,9.97
2022-12-13T13:43:06.012Z,9.47
2022-12-13T13:45:55.843Z,9.90
2022-12-13T13:48:22.462Z,10.27
2022-12-13T13:50:49.544Z,10.17
2022-12-13T13:54:00.679Z,9.27
2022-12-13T13:56:36.184Z,9.20
2022-12-13T13:59:24.677Z,9.93
2022-12-13T14:01:54.670Z,9.17
2022-12-13T14:04:44.864Z,9.87
2022-12-13T14:07:54.679Z,9.97
2022-12-13T14:10:21.722Z,8.80
2022-12-13T14:13:10.154Z,10.10
2022-12-13T14:16:12.216Z,9.23
2022-12-13T14:19:29.220Z,10.27
2022-12-13T14:21:56.347Z,9.17
2022-12-13T14:24:25.744Z,9.47
2022-12-13T14:26:52.507Z,9.67
2022-12-13T14:29:31.613Z,10.47
2022-12-13T14:31:58.912Z,9.50
2022-12-13T14:34:30.980Z,9.30
2022-12-13T14:36:58.075Z,10.40
2022-12-13T14:39:25.852Z,10.13
2022-12-13T14:41:57.063Z,9.60
2022-12-13T14:44:31.654Z,9.90
2022-12-13T14:47:02.807Z,9.83
2022-12-13T14:49:32.468Z,9.50
2022-12-13T14:52:26.142Z,10.40
2022-12-13T14:55:06.110Z,10.73
2022-12-13T14:57:34.634Z,10.30
2022-12-13T15:00:21.329Z,10.47
2022-12-13T15:02:52.851Z,9.83
2022-12-13T15:05:28.818Z,10.00
2022-12-13T15:07:56.510Z,9.97
2022-12-13T15:10:24.418Z,10.50
2022-12-13T15:12:53.456Z,9.83
2022-12-13T15:15:32.317Z,10.40
2022-12-13T15:18:22.184Z,10.17
2022-12-13T15:20:50.602Z,10.00
2022-12-13T15:23:26.452Z,9.97
2022-12-13T15:26:00.773Z,10.13
2022-12-13T15:28:33.221Z,9.97
2022-12-13T15:31:01.141Z,10.27
2022-12-13T15:33:34.421Z,10.13
2022-12-13T15:36:13.286Z,9.57
2022-12-13T15:38:48.738Z,10.23
2022-12-13T15:41:20.600Z,10.47
2022-12-13T15:43:51.647Z,10.63
2022-12-13T15:46:33.305Z,10.63
2022-12-13T15:49:02.387Z,9.70
2022-12-13T15:51:30.756Z,10.17
2022-12-13T15:54:19.296Z,10.60
2022-12-13T15:57:16.023Z,10.67
2022-12-13T15:59:44.219Z,9.20
2022-12-13T16:02:31.489Z,10.93
2022-12-13T16:05:34.164Z,10.73
2022-12-13T16:08:13.445Z,11.40
2022-12-13T16:10:47.480Z,10.40
2022-12-13T16:13:26.415Z,10.53
2022-12-13T16:16:08.531Z,10.63
2022-12-13T16:18:51.578Z,10.57
2022-12-13T16:21:18.354Z,10.70
2022-12-13T16:23:48.659Z,9.97
2022-12-13T16:26:22.320Z,9.90
2022-12-13T16:28:49.042Z,9.93
2022-12-13T16:31:26.109Z,9.30
2022-12-13T16:33:53.191Z,9.07
2022-12-13T16:36:20.266Z,9.47
2022-12-13T16:38:46.970Z,9.40
2022-12-13T16:41:14.839Z,8.63
2022-12-13T16:43:53.597Z,9.20
2022-12-13T16:47:18.077Z,9.60
2022-12-13T16:49:21.075Z,8.53
2022-12-13T16:51:49.008Z,9.30
2022-12-13T16:54:17.116Z,9.47
2022-12-13T16:56:43.776Z,9.77
2022-12-13T16:59:19.930Z,9.40
2022-12-13T17:01:47.034Z,10.70
2022-12-13T17:04:20.663Z,11.07
2022-12-13T17:06:54.893Z,12.67
2022-12-13T17:09:23.295Z,12.03
2022-12-13T17:11:49.986Z,21.87
2022-12-13T17:14:17.037Z,20.03
2022-12-13T17:16:44.229Z,14.57
2022-12-13T17:19:12.277Z,10.33
2022-12-13T17:21:39.382Z,9.57
2022-12-13T17:24:08.034Z,10.03
2022-12-13T17:26:35.218Z,9.73
2022-12-13T17:29:02.071Z,9.43
2022-12-13T17:31:34.973Z,9.23
2022-12-13T17:34:02.958Z,9.93
2022-12-13T17:36:31.686Z,9.77
2022-12-13T17:38:58.997Z,9.30
2022-12-13T17:41:26.172Z,9.73
2022-12-13T17:43:53.238Z,12.33
2022-12-13T17:46:20.085Z,11.37
2022-12-13T17:48:47.500Z,12.33
2022-12-13T17:51:15.303Z,10.67
2022-12-13T17:53:43.563Z,11.93
2022-12-13T17:56:12.318Z,9.80
2022-12-13T17:58:40.036Z,9.23
2022-12-13T18:01:25.797Z,8.77
2022-12-13T18:03:55.515Z,10.27
2022-12-13T18:06:23.533Z,9.47
2022-12-13T18:08:50.798Z,10.40
2022-12-13T18:11:35.284Z,9.80
2022-12-13T18:14:04.043Z,9.23
2022-12-13T18:16:36.849Z,8.73
2022-12-13T18:19:07.192Z,9.00
2022-12-13T18:21:35.464Z,9.00
2022-12-13T18:24:02.751Z,9.30
2022-12-13T18:26:29.427Z,10.37
2022-12-13T18:28:56.145Z,9.57
2022-12-13T18:31:24.559Z,9.43
2022-12-13T18:33:53.093Z,9.73
2022-12-13T18:36:22.914Z,8.17
2022-12-13T18:38:50.076Z,8.00
2022-12-13T18:41:22.639Z,7.77
2022-12-13T18:44:00.939Z,7.93
2022-12-13T18:46:30.248Z,8.83
2022-12-13T18:48:57.376Z,10.10
2022-12-13T18:51:25.012Z,8.90
2022-12-13T18:53:52.669Z,8.43
2022-12-13T18:56:19.714Z,8.90
2022-12-13T18:58:48.102Z,7.93
2022-12-13T19:01:16.098Z,7.67
2022-12-13T19:03:45.663Z,8.60
2022-12-13T19:06:23.851Z,10.00
2022-12-13T19:08:52.377Z,9.50
2022-12-13T19:11:20.144Z,8.90
2022-12-13T19:13:47.622Z,8.20
2022-12-13T19:16:17.068Z,8.60
2022-12-13T19:18:44.144Z,8.93
2022-12-13T19:21:14.933Z,8.57
2022-12-13T19:23:42.809Z,7.43
2022-12-13T19:26:13.080Z,8.43
2022-12-13T19:28:41.488Z,8.87
2022-12-13T19:31:11.412Z,7.70
2022-12-13T19:33:38.931Z,8.63
2022-12-13T19:36:06.210Z,8.17
2022-12-13T19:38:33.308Z,8.67
2022-12-13T19:41:00.440Z,8.10
2022-12-13T19:43:28.357Z,8.93
2022-12-13T19:45:55.368Z,9.00
2022-12-13T19:48:22.557Z,8.87
2022-12-13T19:50:49.854Z,8.60
2022-12-13T19:53:17.368Z,9.00
2022-12-13T19:55:48.263Z,8.47
2022-12-13T19:58:15.404Z,8.70
2022-12-13T20:00:42.699Z,8.57
2022-12-13T20:03:09.520Z,9.27
2022-12-13T20:05:38.155Z,8.33
2022-12-13T20:08:05.435Z,8.47
2022-12-13T20:10:36.529Z,9.97
2022-12-13T20:13:03.980Z,10.87
2022-12-13T20:15:31.238Z,11.47
2022-12-13T20:17:57.981Z,12.10
2022-12-13T20:20:31.454Z,11.80
2022-12-13T20:23:03.451Z,13.87
2022-12-13T20:25:30.622Z,11.23
2022-12-13T20:27:57.743Z,9.60
2022-12-13T20:30:24.886Z,11.60
2022-12-13T20:32:52.482Z,9.00
2022-12-13T20:35:19.995Z,8.40
2022-12-13T20:37:49.425Z,8.43
2022-12-13T20:40:16.318Z,8.73
2022-12-13T20:42:43.165Z,9.43
2022-12-13T20:45:10.728Z,8.30
2022-12-13T20:47:38.136Z,8.23
2022-12-13T20:50:05.794Z,7.63
2022-12-13T20:52:32.983Z,7.83
2022-12-13T20:54:59.761Z,8.53
2022-12-13T20:57:26.903Z,8.47
2022-12-13T20:59:54.104Z,8.20
2022-12-13T21:02:21.326Z,8.23
2022-12-13T21:04:48.486Z,8.37
2022-12-13T21:07:35.150Z,8.27
2022-12-13T21:10:02.331Z,8.20
2022-12-13T21:12:29.392Z,8.40
2022-12-13T21:14:56.156Z,8.03
2022-12-13T21:17:23.457Z,8.00
2022-12-13T21:19:50.585Z,8.80
2022-12-13T21:22:17.710Z,8.07
2022-12-13T21:24:44.426Z,8.23
2022-12-13T21:27:11.152Z,7.93
2022-12-13T21:29:38.320Z,8.17
2022-12-13T21:32:06.089Z,8.40
2022-12-13T21:34:33.007Z,7.47
2022-12-13T21:36:59.653Z,8.27
2022-12-13T21:39:28.444Z,8.47
2022-12-13T21:41:55.636Z,7.43
2022-12-13T21:44:23.043Z,7.23
2022-12-13T21:49:37.627Z,7.67
2022-12-13T21:52:04.514Z,6.97
2022-12-13T21:54:31.216Z,7.60
2022-12-13T21:57:17.254Z,7.33
2022-12-13T21:59:44.350Z,7.37
2022-12-13T22:02:16.826Z,8.20
2022-12-13T22:04:52.340Z,7.03
2022-12-13T22:07:30.362Z,6.50
2022-12-13T22:09:58.809Z,6.87
2022-12-13T22:12:33.058Z,7.03
2022-12-13T22:14:59.961Z,7.40
2022-12-13T22:17:34.625Z,6.77
2022-12-13T22:20:03.457Z,7.10
2022-12-13T22:22:30.697Z,7.03
2022-12-13T22:24:57.485Z,6.60
2022-12-13T22:27:25.605Z,6.80
2022-12-13T22:29:53.890Z,6.50
2022-12-13T22:32:21.378Z,6.80
2022-12-13T22:34:48.650Z,6.50
2022-12-13T22:37:15.696Z,6.90
2022-12-13T22:39:42.802Z,6.70
2022-12-13T22:42:09.904Z,6.53
2022-12-13T22:44:37.074Z,6.70
2022-12-13T22:47:03.845Z,6.37
2022-12-13T22:49:30.525Z,6.67
2022-12-13T22:51:57.627Z,6.03
2022-12-13T22:54:24.315Z,5.83
2022-12-13T22:56:52.699Z,6.07
2022-12-13T22:59:19.845Z,6.07
2022-12-13T23:01:47.272Z,6.00
2022-12-13T23:04:15.336Z,6.43
2022-12-13T23:06:42.595Z,6.73
2022-12-13T23:09:12.162Z,6.23
2022-12-13T23:11:58.099Z,6.30
2022-12-13T23:14:33.497Z,5.87
2022-12-13T23:17:01.527Z,6.10
2022-12-13T23:19:41.635Z,5.83
2022-12-13T23:22:16.403Z,5.80
2022-12-13T23:24:43.465Z,6.27
2022-12-13T23:27:10.538Z,5.87
2022-12-13T23:29:37.252Z,6.17
2022-12-13T23:32:04.391Z,5.97
2022-12-13T23:34:31.237Z,6.10
2022-12-13T23:36:57.923Z,6.00
2022-12-13T23:39:25.006Z,6.37
2022-12-13T23:41:52.073Z,6.33
2022-12-13T23:44:18.717Z,6.17
2022-12-13T23:46:48.348Z,5.90
2022-12-13T23:49:15.669Z,5.63
2022-12-13T23:51:42.493Z,6.70
2022-12-13T23:54:14.399Z,5.90
2022-12-13T23:56:41.084Z,5.90
2022-12-13T23:59:08.148Z,6.07
